<?xml version="1.0" encoding="UTF-8" standalone="no" ?>
<gpx xmlns="http://www.topografix.com/GPX/1/1" xmlns:xsi="http://www.w3.org/2001/XMLSchema-instance" xsi:schemaLocation="http://www.topografix.com/GPX/1/1 http://www.topografix.com/GPX/1/1/gpx.xsd" version="1.1" creator="VisuGPX - https://www.visugpx.com">
  <metadata>
    <name>Tour de France 2019</name>
    <desc><![CDATA[4272km en 2 mois en tandem avec notre petit chien dans le panier avant]]></desc>
  </metadata>
  <trk>
    <name><![CDATA[Tracé 20191109-084145]]></name>
    <trkseg>
      <trkpt lat="46.78328" lon="-2.06622">
        <ele>0.085</ele>
        <time>2019-11-09T07:42:21Z</time>
      </trkpt>
      <trkpt lat="46.78309" lon="-2.0664">
        <ele>6</ele>
        <time>2019-11-09T07:49:42Z</time>
      </trkpt>
      <trkpt lat="46.78298" lon="-2.06664">
        <ele>5.615</ele>
        <time>2019-11-09T07:50:27Z</time>
      </trkpt>
      <trkpt lat="46.78345" lon="-2.0666">
        <ele>7.633</ele>
        <time>2019-11-09T07:52:54Z</time>
      </trkpt>
      <trkpt lat="46.7847" lon="-2.06594">
        <ele>10.911</ele>
        <time>2019-11-09T07:53:27Z</time>
      </trkpt>
      <trkpt lat="46.78621" lon="-2.06504">
        <ele>16.781</ele>
        <time>2019-11-09T07:54:00Z</time>
      </trkpt>
      <trkpt lat="46.78767" lon="-2.06415">
        <ele>26.685</ele>
        <time>2019-11-09T07:54:33Z</time>
      </trkpt>
      <trkpt lat="46.78904" lon="-2.06324">
        <ele>22.825</ele>
        <time>2019-11-09T07:55:06Z</time>
      </trkpt>
      <trkpt lat="46.79034" lon="-2.06219">
        <ele>14.399</ele>
        <time>2019-11-09T07:55:39Z</time>
      </trkpt>
      <trkpt lat="46.79205" lon="-2.06112">
        <ele>15.82</ele>
        <time>2019-11-09T07:56:12Z</time>
      </trkpt>
      <trkpt lat="46.79336" lon="-2.06123">
        <ele>11.683</ele>
        <time>2019-11-09T07:56:45Z</time>
      </trkpt>
      <trkpt lat="46.79392" lon="-2.06375">
        <ele>4.168</ele>
        <time>2019-11-09T07:57:18Z</time>
      </trkpt>
      <trkpt lat="46.79459" lon="-2.06626">
        <ele>4.434</ele>
        <time>2019-11-09T07:57:51Z</time>
      </trkpt>
      <trkpt lat="46.79545" lon="-2.06823">
        <ele>8.413</ele>
        <time>2019-11-09T07:58:21Z</time>
      </trkpt>
      <trkpt lat="46.79701" lon="-2.06941">
        <ele>3.295</ele>
        <time>2019-11-09T07:58:54Z</time>
      </trkpt>
      <trkpt lat="46.79887" lon="-2.06834">
        <ele>7.615</ele>
        <time>2019-11-09T07:59:27Z</time>
      </trkpt>
      <trkpt lat="46.80065" lon="-2.06744">
        <ele>3.745</ele>
        <time>2019-11-09T08:00:00Z</time>
      </trkpt>
      <trkpt lat="46.80214" lon="-2.06683">
        <ele>4.643</ele>
        <time>2019-11-09T08:00:33Z</time>
      </trkpt>
      <trkpt lat="46.80406" lon="-2.06622">
        <ele>1.937</ele>
        <time>2019-11-09T08:01:06Z</time>
      </trkpt>
      <trkpt lat="46.80573" lon="-2.06512">
        <ele>3.672</ele>
        <time>2019-11-09T08:01:39Z</time>
      </trkpt>
      <trkpt lat="46.80735" lon="-2.06402">
        <ele>3.063</ele>
        <time>2019-11-09T08:02:12Z</time>
      </trkpt>
      <trkpt lat="46.8091" lon="-2.06329">
        <ele>2.6</ele>
        <time>2019-11-09T08:02:45Z</time>
      </trkpt>
      <trkpt lat="46.81094" lon="-2.06311">
        <ele>2.15</ele>
        <time>2019-11-09T08:03:18Z</time>
      </trkpt>
      <trkpt lat="46.81265" lon="-2.06313">
        <ele>3.726</ele>
        <time>2019-11-09T08:03:51Z</time>
      </trkpt>
      <trkpt lat="46.8145" lon="-2.06365">
        <ele>5.197</ele>
        <time>2019-11-09T08:04:24Z</time>
      </trkpt>
      <trkpt lat="46.81623" lon="-2.06405">
        <ele>2.09</ele>
        <time>2019-11-09T08:04:57Z</time>
      </trkpt>
      <trkpt lat="46.81785" lon="-2.06367">
        <ele>2.82</ele>
        <time>2019-11-09T08:05:27Z</time>
      </trkpt>
      <trkpt lat="46.81975" lon="-2.06323">
        <ele>1.408</ele>
        <time>2019-11-09T08:06:00Z</time>
      </trkpt>
      <trkpt lat="46.82161" lon="-2.06294">
        <ele>4.714</ele>
        <time>2019-11-09T08:06:33Z</time>
      </trkpt>
      <trkpt lat="46.82332" lon="-2.06205">
        <ele>2.688</ele>
        <time>2019-11-09T08:07:06Z</time>
      </trkpt>
      <trkpt lat="46.82496" lon="-2.06133">
        <ele>5.778</ele>
        <time>2019-11-09T08:07:39Z</time>
      </trkpt>
      <trkpt lat="46.82682" lon="-2.06145">
        <ele>7.2</ele>
        <time>2019-11-09T08:08:12Z</time>
      </trkpt>
      <trkpt lat="46.82872" lon="-2.06141">
        <ele>2.819</ele>
        <time>2019-11-09T08:08:45Z</time>
      </trkpt>
      <trkpt lat="46.8305" lon="-2.0611">
        <ele>4.24</ele>
        <time>2019-11-09T08:09:18Z</time>
      </trkpt>
      <trkpt lat="46.83223" lon="-2.0614">
        <ele>5.044</ele>
        <time>2019-11-09T08:09:51Z</time>
      </trkpt>
      <trkpt lat="46.83396" lon="-2.0622">
        <ele>2.769</ele>
        <time>2019-11-09T08:10:24Z</time>
      </trkpt>
      <trkpt lat="46.83578" lon="-2.06273">
        <ele>2.131</ele>
        <time>2019-11-09T08:10:57Z</time>
      </trkpt>
      <trkpt lat="46.83758" lon="-2.06237">
        <ele>1.784</ele>
        <time>2019-11-09T08:11:30Z</time>
      </trkpt>
      <trkpt lat="46.83923" lon="-2.06148">
        <ele>2.076</ele>
        <time>2019-11-09T08:12:03Z</time>
      </trkpt>
      <trkpt lat="46.84075" lon="-2.06068">
        <ele>2.747</ele>
        <time>2019-11-09T08:12:33Z</time>
      </trkpt>
      <trkpt lat="46.84251" lon="-2.06025">
        <ele>3.731</ele>
        <time>2019-11-09T08:13:06Z</time>
      </trkpt>
      <trkpt lat="46.84442" lon="-2.06046">
        <ele>1.976</ele>
        <time>2019-11-09T08:13:39Z</time>
      </trkpt>
      <trkpt lat="46.8463" lon="-2.06067">
        <ele>0.606</ele>
        <time>2019-11-09T08:14:12Z</time>
      </trkpt>
      <trkpt lat="46.84814" lon="-2.06088">
        <ele>2.22</ele>
        <time>2019-11-09T08:14:45Z</time>
      </trkpt>
      <trkpt lat="46.85" lon="-2.0613">
        <ele>2.624</ele>
        <time>2019-11-09T08:15:18Z</time>
      </trkpt>
      <trkpt lat="46.85182" lon="-2.06102">
        <ele>1.189</ele>
        <time>2019-11-09T08:15:51Z</time>
      </trkpt>
      <trkpt lat="46.85322" lon="-2.05961">
        <ele>5.458</ele>
        <time>2019-11-09T08:16:24Z</time>
      </trkpt>
      <trkpt lat="46.85498" lon="-2.05958">
        <ele>3.238</ele>
        <time>2019-11-09T08:16:57Z</time>
      </trkpt>
      <trkpt lat="46.85672" lon="-2.06059">
        <ele>3.309</ele>
        <time>2019-11-09T08:17:30Z</time>
      </trkpt>
      <trkpt lat="46.85844" lon="-2.06075">
        <ele>11.555</ele>
        <time>2019-11-09T08:18:03Z</time>
      </trkpt>
      <trkpt lat="46.86037" lon="-2.06104">
        <ele>8.312</ele>
        <time>2019-11-09T08:18:36Z</time>
      </trkpt>
      <trkpt lat="46.86205" lon="-2.06041">
        <ele>5.356</ele>
        <time>2019-11-09T08:19:09Z</time>
      </trkpt>
      <trkpt lat="46.86384" lon="-2.05983">
        <ele>1.193</ele>
        <time>2019-11-09T08:19:42Z</time>
      </trkpt>
      <trkpt lat="46.86556" lon="-2.06014">
        <ele>2.001</ele>
        <time>2019-11-09T08:20:12Z</time>
      </trkpt>
      <trkpt lat="46.8674" lon="-2.06018">
        <ele>1.596</ele>
        <time>2019-11-09T08:20:45Z</time>
      </trkpt>
      <trkpt lat="46.86921" lon="-2.06">
        <ele>2.319</ele>
        <time>2019-11-09T08:21:18Z</time>
      </trkpt>
      <trkpt lat="46.87102" lon="-2.05979">
        <ele>0.59</ele>
        <time>2019-11-09T08:21:51Z</time>
      </trkpt>
      <trkpt lat="46.87281" lon="-2.05942">
        <ele>1</ele>
        <time>2019-11-09T08:22:24Z</time>
      </trkpt>
      <trkpt lat="46.87463" lon="-2.05902">
        <ele>2.742</ele>
        <time>2019-11-09T08:22:57Z</time>
      </trkpt>
      <trkpt lat="46.87647" lon="-2.05859">
        <ele>3.01</ele>
        <time>2019-11-09T08:23:30Z</time>
      </trkpt>
      <trkpt lat="46.8783" lon="-2.05852">
        <ele>0.649</ele>
        <time>2019-11-09T08:24:03Z</time>
      </trkpt>
      <trkpt lat="46.88012" lon="-2.0589">
        <ele>1.205</ele>
        <time>2019-11-09T08:24:36Z</time>
      </trkpt>
      <trkpt lat="46.88197" lon="-2.05961">
        <ele>1.088</ele>
        <time>2019-11-09T08:25:09Z</time>
      </trkpt>
      <trkpt lat="46.88383" lon="-2.06011">
        <ele>3.189</ele>
        <time>2019-11-09T08:25:42Z</time>
      </trkpt>
      <trkpt lat="46.88572" lon="-2.06057">
        <ele>1.796</ele>
        <time>2019-11-09T08:26:15Z</time>
      </trkpt>
      <trkpt lat="46.88756" lon="-2.06102">
        <ele>1</ele>
        <time>2019-11-09T08:26:48Z</time>
      </trkpt>
      <trkpt lat="46.88913" lon="-2.06189">
        <ele>2.485</ele>
        <time>2019-11-09T08:27:18Z</time>
      </trkpt>
      <trkpt lat="46.89068" lon="-2.06331">
        <ele>3.297</ele>
        <time>2019-11-09T08:27:51Z</time>
      </trkpt>
      <trkpt lat="46.89214" lon="-2.06512">
        <ele>3.2</ele>
        <time>2019-11-09T08:28:24Z</time>
      </trkpt>
      <trkpt lat="46.89386" lon="-2.06549">
        <ele>2.427</ele>
        <time>2019-11-09T08:28:57Z</time>
      </trkpt>
      <trkpt lat="46.8955" lon="-2.06448">
        <ele>4.598</ele>
        <time>2019-11-09T08:29:30Z</time>
      </trkpt>
      <trkpt lat="46.89731" lon="-2.06382">
        <ele>5.12</ele>
        <time>2019-11-09T08:30:03Z</time>
      </trkpt>
      <trkpt lat="46.89906" lon="-2.06322">
        <ele>1.888</ele>
        <time>2019-11-09T08:30:36Z</time>
      </trkpt>
      <trkpt lat="46.9005" lon="-2.06185">
        <ele>1.966</ele>
        <time>2019-11-09T08:31:09Z</time>
      </trkpt>
      <trkpt lat="46.90152" lon="-2.05994">
        <ele>2.365</ele>
        <time>2019-11-09T08:31:42Z</time>
      </trkpt>
      <trkpt lat="46.90272" lon="-2.05841">
        <ele>3.239</ele>
        <time>2019-11-09T08:32:15Z</time>
      </trkpt>
      <trkpt lat="46.9038" lon="-2.05666">
        <ele>3.765</ele>
        <time>2019-11-09T08:32:48Z</time>
      </trkpt>
      <trkpt lat="46.90415" lon="-2.05456">
        <ele>3.351</ele>
        <time>2019-11-09T08:33:21Z</time>
      </trkpt>
      <trkpt lat="46.90453" lon="-2.05246">
        <ele>2.385</ele>
        <time>2019-11-09T08:33:54Z</time>
      </trkpt>
      <trkpt lat="46.90524" lon="-2.05077">
        <ele>3.552</ele>
        <time>2019-11-09T08:34:24Z</time>
      </trkpt>
      <trkpt lat="46.90668" lon="-2.04964">
        <ele>3.34</ele>
        <time>2019-11-09T08:34:57Z</time>
      </trkpt>
      <trkpt lat="46.90822" lon="-2.0485">
        <ele>6.342</ele>
        <time>2019-11-09T08:35:30Z</time>
      </trkpt>
      <trkpt lat="46.90975" lon="-2.04755">
        <ele>8.301</ele>
        <time>2019-11-09T08:36:03Z</time>
      </trkpt>
      <trkpt lat="46.91116" lon="-2.04663">
        <ele>7.077</ele>
        <time>2019-11-09T08:36:36Z</time>
      </trkpt>
      <trkpt lat="46.91253" lon="-2.04573">
        <ele>9.407</ele>
        <time>2019-11-09T08:37:09Z</time>
      </trkpt>
      <trkpt lat="46.91413" lon="-2.04539">
        <ele>11.542</ele>
        <time>2019-11-09T08:37:42Z</time>
      </trkpt>
      <trkpt lat="46.91554" lon="-2.04673">
        <ele>4.602</ele>
        <time>2019-11-09T08:38:15Z</time>
      </trkpt>
      <trkpt lat="46.91548" lon="-2.04931">
        <ele>4.098</ele>
        <time>2019-11-09T08:38:48Z</time>
      </trkpt>
      <trkpt lat="46.91511" lon="-2.05174">
        <ele>7.767</ele>
        <time>2019-11-09T08:39:21Z</time>
      </trkpt>
      <trkpt lat="46.91568" lon="-2.0542">
        <ele>2.351</ele>
        <time>2019-11-09T08:39:54Z</time>
      </trkpt>
      <trkpt lat="46.91571" lon="-2.05684">
        <ele>2.785</ele>
        <time>2019-11-09T08:40:27Z</time>
      </trkpt>
      <trkpt lat="46.91554" lon="-2.0595">
        <ele>1.793</ele>
        <time>2019-11-09T08:41:00Z</time>
      </trkpt>
      <trkpt lat="46.91537" lon="-2.0619">
        <ele>3.605</ele>
        <time>2019-11-09T08:41:30Z</time>
      </trkpt>
      <trkpt lat="46.91537" lon="-2.0645">
        <ele>0.722</ele>
        <time>2019-11-09T08:42:03Z</time>
      </trkpt>
      <trkpt lat="46.91625" lon="-2.06692">
        <ele>2.042</ele>
        <time>2019-11-09T08:42:36Z</time>
      </trkpt>
      <trkpt lat="46.91619" lon="-2.06954">
        <ele>2.591</ele>
        <time>2019-11-09T08:43:09Z</time>
      </trkpt>
      <trkpt lat="46.91645" lon="-2.07214">
        <ele>1.628</ele>
        <time>2019-11-09T08:43:42Z</time>
      </trkpt>
      <trkpt lat="46.91679" lon="-2.07465">
        <ele>2.175</ele>
        <time>2019-11-09T08:44:15Z</time>
      </trkpt>
      <trkpt lat="46.91694" lon="-2.07727">
        <ele>1.559</ele>
        <time>2019-11-09T08:44:48Z</time>
      </trkpt>
      <trkpt lat="46.91772" lon="-2.07972">
        <ele>1.986</ele>
        <time>2019-11-09T08:45:21Z</time>
      </trkpt>
      <trkpt lat="46.91891" lon="-2.08165">
        <ele>1.426</ele>
        <time>2019-11-09T08:45:54Z</time>
      </trkpt>
      <trkpt lat="46.91994" lon="-2.07958">
        <ele>3.714</ele>
        <time>2019-11-09T08:46:27Z</time>
      </trkpt>
      <trkpt lat="46.92155" lon="-2.07865">
        <ele>3.217</ele>
        <time>2019-11-09T08:47:00Z</time>
      </trkpt>
      <trkpt lat="46.92297" lon="-2.0771">
        <ele>2.602</ele>
        <time>2019-11-09T08:47:33Z</time>
      </trkpt>
      <trkpt lat="46.92442" lon="-2.0757">
        <ele>2.896</ele>
        <time>2019-11-09T08:48:06Z</time>
      </trkpt>
      <trkpt lat="46.92603" lon="-2.07535">
        <ele>2.577</ele>
        <time>2019-11-09T08:48:36Z</time>
      </trkpt>
      <trkpt lat="46.92772" lon="-2.07454">
        <ele>3.018</ele>
        <time>2019-11-09T08:49:09Z</time>
      </trkpt>
      <trkpt lat="46.9294" lon="-2.07379">
        <ele>5.019</ele>
        <time>2019-11-09T08:49:42Z</time>
      </trkpt>
      <trkpt lat="46.93108" lon="-2.073">
        <ele>4.887</ele>
        <time>2019-11-09T08:50:15Z</time>
      </trkpt>
      <trkpt lat="46.93276" lon="-2.07223">
        <ele>3.157</ele>
        <time>2019-11-09T08:50:48Z</time>
      </trkpt>
      <trkpt lat="46.93449" lon="-2.0714">
        <ele>5.017</ele>
        <time>2019-11-09T08:51:21Z</time>
      </trkpt>
      <trkpt lat="46.9358" lon="-2.07093">
        <ele>4.881</ele>
        <time>2019-11-09T08:51:54Z</time>
      </trkpt>
      <trkpt lat="46.93625" lon="-2.07022">
        <ele>4.125</ele>
        <time>2019-11-09T08:52:27Z</time>
      </trkpt>
      <trkpt lat="46.93644" lon="-2.06782">
        <ele>1.373</ele>
        <time>2019-11-09T08:53:00Z</time>
      </trkpt>
      <trkpt lat="46.93709" lon="-2.0658">
        <ele>1.095</ele>
        <time>2019-11-09T08:53:33Z</time>
      </trkpt>
      <trkpt lat="46.93762" lon="-2.06372">
        <ele>0.15</ele>
        <time>2019-11-09T08:54:06Z</time>
      </trkpt>
      <trkpt lat="46.93791" lon="-2.06164">
        <ele>2.961</ele>
        <time>2019-11-09T08:54:39Z</time>
      </trkpt>
      <trkpt lat="46.93852" lon="-2.05979">
        <ele>3.505</ele>
        <time>2019-11-09T08:55:12Z</time>
      </trkpt>
      <trkpt lat="46.93953" lon="-2.05827">
        <ele>1.388</ele>
        <time>2019-11-09T08:55:42Z</time>
      </trkpt>
      <trkpt lat="46.94013" lon="-2.05628">
        <ele>0.811</ele>
        <time>2019-11-09T08:56:15Z</time>
      </trkpt>
      <trkpt lat="46.94036" lon="-2.05416">
        <ele>0.312</ele>
        <time>2019-11-09T08:56:48Z</time>
      </trkpt>
      <trkpt lat="46.94092" lon="-2.05222">
        <ele>1.925</ele>
        <time>2019-11-09T08:57:21Z</time>
      </trkpt>
      <trkpt lat="46.942" lon="-2.05136">
        <ele>2.861</ele>
        <time>2019-11-09T08:57:54Z</time>
      </trkpt>
      <trkpt lat="46.94323" lon="-2.0499">
        <ele>2.522</ele>
        <time>2019-11-09T08:58:27Z</time>
      </trkpt>
      <trkpt lat="46.94426" lon="-2.0484">
        <ele>0.884</ele>
        <time>2019-11-09T08:59:00Z</time>
      </trkpt>
      <trkpt lat="46.94518" lon="-2.04686">
        <ele>1.333</ele>
        <time>2019-11-09T08:59:33Z</time>
      </trkpt>
      <trkpt lat="46.94583" lon="-2.04517">
        <ele>2.195</ele>
        <time>2019-11-09T09:00:06Z</time>
      </trkpt>
      <trkpt lat="46.94708" lon="-2.04408">
        <ele>1.1</ele>
        <time>2019-11-09T09:00:39Z</time>
      </trkpt>
      <trkpt lat="46.94838" lon="-2.04376">
        <ele>1.729</ele>
        <time>2019-11-09T09:01:12Z</time>
      </trkpt>
      <trkpt lat="46.9491" lon="-2.04598">
        <ele>0.538</ele>
        <time>2019-11-09T09:01:45Z</time>
      </trkpt>
      <trkpt lat="46.94979" lon="-2.04741">
        <ele>2.967</ele>
        <time>2019-11-09T09:02:18Z</time>
      </trkpt>
      <trkpt lat="46.9512" lon="-2.04645">
        <ele>0.572</ele>
        <time>2019-11-09T09:02:51Z</time>
      </trkpt>
      <trkpt lat="46.95235" lon="-2.04564">
        <ele>0.32</ele>
        <time>2019-11-09T09:03:21Z</time>
      </trkpt>
      <trkpt lat="46.95375" lon="-2.04466">
        <ele>3</ele>
        <time>2019-11-09T09:03:54Z</time>
      </trkpt>
      <trkpt lat="46.9551" lon="-2.04371">
        <ele>0.637</ele>
        <time>2019-11-09T09:04:27Z</time>
      </trkpt>
      <trkpt lat="46.95643" lon="-2.04289">
        <ele>2.253</ele>
        <time>2019-11-09T09:05:00Z</time>
      </trkpt>
      <trkpt lat="46.95801" lon="-2.0426">
        <ele>1.824</ele>
        <time>2019-11-09T09:05:33Z</time>
      </trkpt>
      <trkpt lat="46.95978" lon="-2.04292">
        <ele>1.924</ele>
        <time>2019-11-09T09:06:06Z</time>
      </trkpt>
      <trkpt lat="46.96169" lon="-2.04326">
        <ele>0.697</ele>
        <time>2019-11-09T09:06:39Z</time>
      </trkpt>
      <trkpt lat="46.96347" lon="-2.04355">
        <ele>3.415</ele>
        <time>2019-11-09T09:07:12Z</time>
      </trkpt>
      <trkpt lat="46.96531" lon="-2.04389">
        <ele>1.589</ele>
        <time>2019-11-09T09:07:45Z</time>
      </trkpt>
      <trkpt lat="46.96722" lon="-2.04379">
        <ele>1.838</ele>
        <time>2019-11-09T09:08:18Z</time>
      </trkpt>
      <trkpt lat="46.968" lon="-2.04333">
        <ele>1.97</ele>
        <time>2019-11-09T09:09:36Z</time>
      </trkpt>
      <trkpt lat="46.96804" lon="-2.04214">
        <ele>2.683</ele>
        <time>2019-11-09T09:10:12Z</time>
      </trkpt>
      <trkpt lat="46.96824" lon="-2.0409">
        <ele>4.168</ele>
        <time>2019-11-09T09:10:45Z</time>
      </trkpt>
      <trkpt lat="46.96836" lon="-2.03939">
        <ele>2.64</ele>
        <time>2019-11-09T09:11:15Z</time>
      </trkpt>
      <trkpt lat="46.96862" lon="-2.03793">
        <ele>4.814</ele>
        <time>2019-11-09T09:11:48Z</time>
      </trkpt>
      <trkpt lat="46.96877" lon="-2.03616">
        <ele>4.988</ele>
        <time>2019-11-09T09:12:21Z</time>
      </trkpt>
      <trkpt lat="46.96885" lon="-2.03418">
        <ele>2.973</ele>
        <time>2019-11-09T09:12:54Z</time>
      </trkpt>
      <trkpt lat="46.96955" lon="-2.03341">
        <ele>3.77</ele>
        <time>2019-11-09T09:13:27Z</time>
      </trkpt>
      <trkpt lat="46.97112" lon="-2.03373">
        <ele>2.011</ele>
        <time>2019-11-09T09:14:00Z</time>
      </trkpt>
      <trkpt lat="46.97298" lon="-2.03387">
        <ele>2.596</ele>
        <time>2019-11-09T09:14:33Z</time>
      </trkpt>
      <trkpt lat="46.97483" lon="-2.03396">
        <ele>0.68</ele>
        <time>2019-11-09T09:15:06Z</time>
      </trkpt>
      <trkpt lat="46.97655" lon="-2.03486">
        <ele>0.515</ele>
        <time>2019-11-09T09:15:39Z</time>
      </trkpt>
      <trkpt lat="46.97826" lon="-2.03464">
        <ele>2.344</ele>
        <time>2019-11-09T09:16:12Z</time>
      </trkpt>
      <trkpt lat="46.97958" lon="-2.03344">
        <ele>2.927</ele>
        <time>2019-11-09T09:16:45Z</time>
      </trkpt>
      <trkpt lat="46.98061" lon="-2.03255">
        <ele>1.914</ele>
        <time>2019-11-09T09:17:18Z</time>
      </trkpt>
      <trkpt lat="46.98161" lon="-2.0312">
        <ele>0.524</ele>
        <time>2019-11-09T09:17:51Z</time>
      </trkpt>
      <trkpt lat="46.98254" lon="-2.03092">
        <ele>2.322</ele>
        <time>2019-11-09T09:18:21Z</time>
      </trkpt>
      <trkpt lat="46.98412" lon="-2.03129">
        <ele>1.523</ele>
        <time>2019-11-09T09:18:54Z</time>
      </trkpt>
      <trkpt lat="46.9853" lon="-2.03037">
        <ele>2.998</ele>
        <time>2019-11-09T09:19:27Z</time>
      </trkpt>
      <trkpt lat="46.98632" lon="-2.02926">
        <ele>2.205</ele>
        <time>2019-11-09T09:20:00Z</time>
      </trkpt>
      <trkpt lat="46.98754" lon="-2.03064">
        <ele>1.094</ele>
        <time>2019-11-09T09:20:33Z</time>
      </trkpt>
      <trkpt lat="46.98906" lon="-2.03128">
        <ele>0.388</ele>
        <time>2019-11-09T09:21:06Z</time>
      </trkpt>
      <trkpt lat="46.99015" lon="-2.03012">
        <ele>4.968</ele>
        <time>2019-11-09T09:21:39Z</time>
      </trkpt>
      <trkpt lat="46.99149" lon="-2.02918">
        <ele>2.909</ele>
        <time>2019-11-09T09:22:12Z</time>
      </trkpt>
      <trkpt lat="46.99323" lon="-2.0283">
        <ele>1.68</ele>
        <time>2019-11-09T09:22:45Z</time>
      </trkpt>
      <trkpt lat="46.99496" lon="-2.02742">
        <ele>2.925</ele>
        <time>2019-11-09T09:23:18Z</time>
      </trkpt>
      <trkpt lat="46.99671" lon="-2.02678">
        <ele>1.526</ele>
        <time>2019-11-09T09:23:51Z</time>
      </trkpt>
      <trkpt lat="46.99773" lon="-2.02782">
        <ele>2.776</ele>
        <time>2019-11-09T09:24:24Z</time>
      </trkpt>
      <trkpt lat="46.998" lon="-2.02926">
        <ele>7.793</ele>
        <time>2019-11-09T09:25:00Z</time>
      </trkpt>
      <trkpt lat="46.99876" lon="-2.02881">
        <ele>2.014</ele>
        <time>2019-11-09T09:26:18Z</time>
      </trkpt>
      <trkpt lat="47.00026" lon="-2.02818">
        <ele>0.794</ele>
        <time>2019-11-09T09:26:51Z</time>
      </trkpt>
      <trkpt lat="47.00203" lon="-2.02777">
        <ele>1.863</ele>
        <time>2019-11-09T09:27:24Z</time>
      </trkpt>
      <trkpt lat="47.00368" lon="-2.02695">
        <ele>2.139</ele>
        <time>2019-11-09T09:27:57Z</time>
      </trkpt>
      <trkpt lat="47.00533" lon="-2.02621">
        <ele>2.456</ele>
        <time>2019-11-09T09:28:30Z</time>
      </trkpt>
      <trkpt lat="47.00696" lon="-2.02588">
        <ele>0.438</ele>
        <time>2019-11-09T09:29:03Z</time>
      </trkpt>
      <trkpt lat="47.00809" lon="-2.02724">
        <ele>1</ele>
        <time>2019-11-09T09:29:36Z</time>
      </trkpt>
      <trkpt lat="47.00911" lon="-2.0263">
        <ele>0.544</ele>
        <time>2019-11-09T09:30:09Z</time>
      </trkpt>
      <trkpt lat="47.00969" lon="-2.02419">
        <ele>4.435</ele>
        <time>2019-11-09T09:30:42Z</time>
      </trkpt>
      <trkpt lat="47.01035" lon="-2.02223">
        <ele>6.695</ele>
        <time>2019-11-09T09:31:15Z</time>
      </trkpt>
      <trkpt lat="47.01109" lon="-2.02008">
        <ele>3.528</ele>
        <time>2019-11-09T09:31:48Z</time>
      </trkpt>
      <trkpt lat="47.01182" lon="-2.01873">
        <ele>4.501</ele>
        <time>2019-11-09T09:32:21Z</time>
      </trkpt>
      <trkpt lat="47.0122" lon="-2.017">
        <ele>3.221</ele>
        <time>2019-11-09T09:32:54Z</time>
      </trkpt>
      <trkpt lat="47.01296" lon="-2.01533">
        <ele>3.732</ele>
        <time>2019-11-09T09:33:24Z</time>
      </trkpt>
      <trkpt lat="47.01387" lon="-2.01342">
        <ele>2.689</ele>
        <time>2019-11-09T09:33:57Z</time>
      </trkpt>
      <trkpt lat="47.01516" lon="-2.01222">
        <ele>3.439</ele>
        <time>2019-11-09T09:34:30Z</time>
      </trkpt>
      <trkpt lat="47.01622" lon="-2.01059">
        <ele>2.237</ele>
        <time>2019-11-09T09:35:03Z</time>
      </trkpt>
      <trkpt lat="47.0159" lon="-2.00904">
        <ele>2.197</ele>
        <time>2019-11-09T09:35:36Z</time>
      </trkpt>
      <trkpt lat="47.01533" lon="-2.00695">
        <ele>2.212</ele>
        <time>2019-11-09T09:36:09Z</time>
      </trkpt>
      <trkpt lat="47.01455" lon="-2.0051">
        <ele>3.064</ele>
        <time>2019-11-09T09:36:42Z</time>
      </trkpt>
      <trkpt lat="47.01392" lon="-2.00308">
        <ele>3.668</ele>
        <time>2019-11-09T09:37:15Z</time>
      </trkpt>
      <trkpt lat="47.01433" lon="-2.0013">
        <ele>3.617</ele>
        <time>2019-11-09T09:37:48Z</time>
      </trkpt>
      <trkpt lat="47.01422" lon="-1.99955">
        <ele>1.395</ele>
        <time>2019-11-09T09:38:21Z</time>
      </trkpt>
      <trkpt lat="47.01399" lon="-1.99796">
        <ele>1.804</ele>
        <time>2019-11-09T09:38:54Z</time>
      </trkpt>
      <trkpt lat="47.01381" lon="-1.99636">
        <ele>1.49</ele>
        <time>2019-11-09T09:39:27Z</time>
      </trkpt>
      <trkpt lat="47.01374" lon="-1.99467">
        <ele>1.139</ele>
        <time>2019-11-09T09:40:00Z</time>
      </trkpt>
      <trkpt lat="47.01369" lon="-1.99315">
        <ele>2.737</ele>
        <time>2019-11-09T09:40:30Z</time>
      </trkpt>
      <trkpt lat="47.01362" lon="-1.99147">
        <ele>0.503</ele>
        <time>2019-11-09T09:41:03Z</time>
      </trkpt>
      <trkpt lat="47.01358" lon="-1.98981">
        <ele>1.696</ele>
        <time>2019-11-09T09:41:36Z</time>
      </trkpt>
      <trkpt lat="47.01351" lon="-1.98816">
        <ele>3.104</ele>
        <time>2019-11-09T09:42:09Z</time>
      </trkpt>
      <trkpt lat="47.01384" lon="-1.98691">
        <ele>2.118</ele>
        <time>2019-11-09T09:42:42Z</time>
      </trkpt>
      <trkpt lat="47.01561" lon="-1.9869">
        <ele>0.668</ele>
        <time>2019-11-09T09:43:15Z</time>
      </trkpt>
      <trkpt lat="47.01682" lon="-1.98529">
        <ele>2.04</ele>
        <time>2019-11-09T09:43:48Z</time>
      </trkpt>
      <trkpt lat="47.0178" lon="-1.98344">
        <ele>2.355</ele>
        <time>2019-11-09T09:44:21Z</time>
      </trkpt>
      <trkpt lat="47.01875" lon="-1.98165">
        <ele>0.671</ele>
        <time>2019-11-09T09:44:54Z</time>
      </trkpt>
      <trkpt lat="47.01968" lon="-1.9799">
        <ele>1.946</ele>
        <time>2019-11-09T09:45:27Z</time>
      </trkpt>
      <trkpt lat="47.02061" lon="-1.97816">
        <ele>1.979</ele>
        <time>2019-11-09T09:46:00Z</time>
      </trkpt>
      <trkpt lat="47.02153" lon="-1.97641">
        <ele>1.003</ele>
        <time>2019-11-09T09:46:33Z</time>
      </trkpt>
      <trkpt lat="47.02307" lon="-1.97595">
        <ele>0.155</ele>
        <time>2019-11-09T09:47:06Z</time>
      </trkpt>
      <trkpt lat="47.02478" lon="-1.9758">
        <ele>0.805</ele>
        <time>2019-11-09T09:47:39Z</time>
      </trkpt>
      <trkpt lat="47.02635" lon="-1.97568">
        <ele>0.751</ele>
        <time>2019-11-09T09:48:09Z</time>
      </trkpt>
      <trkpt lat="47.02709" lon="-1.97426">
        <ele>3.689</ele>
        <time>2019-11-09T09:48:42Z</time>
      </trkpt>
      <trkpt lat="47.02732" lon="-1.97226">
        <ele>4.647</ele>
        <time>2019-11-09T09:49:15Z</time>
      </trkpt>
      <trkpt lat="47.02841" lon="-1.97093">
        <ele>4.384</ele>
        <time>2019-11-09T09:49:48Z</time>
      </trkpt>
      <trkpt lat="47.02995" lon="-1.9709">
        <ele>4.219</ele>
        <time>2019-11-09T09:50:21Z</time>
      </trkpt>
      <trkpt lat="47.03163" lon="-1.97107">
        <ele>2.023</ele>
        <time>2019-11-09T09:50:54Z</time>
      </trkpt>
      <trkpt lat="47.03325" lon="-1.97073">
        <ele>3.378</ele>
        <time>2019-11-09T09:51:27Z</time>
      </trkpt>
      <trkpt lat="47.03422" lon="-1.97036">
        <ele>5.463</ele>
        <time>2019-11-09T09:58:45Z</time>
      </trkpt>
      <trkpt lat="47.03422" lon="-1.97037">
        <ele>5.463</ele>
        <time>2019-11-09T10:00:27Z</time>
      </trkpt>
      <trkpt lat="47.03422" lon="-1.97037">
        <ele>5.463</ele>
        <time>2019-11-09T10:04:57Z</time>
      </trkpt>
      <trkpt lat="47.03427" lon="-1.9701">
        <ele>4.752</ele>
        <time>2019-11-09T10:11:39Z</time>
      </trkpt>
      <trkpt lat="47.03443" lon="-1.9681">
        <ele>9.294</ele>
        <time>2019-11-09T10:12:12Z</time>
      </trkpt>
      <trkpt lat="47.0346" lon="-1.96597">
        <ele>7.041</ele>
        <time>2019-11-09T10:12:45Z</time>
      </trkpt>
      <trkpt lat="47.03534" lon="-1.9644">
        <ele>5.976</ele>
        <time>2019-11-09T10:13:15Z</time>
      </trkpt>
      <trkpt lat="47.03661" lon="-1.96293">
        <ele>4.181</ele>
        <time>2019-11-09T10:13:48Z</time>
      </trkpt>
      <trkpt lat="47.03753" lon="-1.96108">
        <ele>4.178</ele>
        <time>2019-11-09T10:14:21Z</time>
      </trkpt>
      <trkpt lat="47.03862" lon="-1.95953">
        <ele>3.634</ele>
        <time>2019-11-09T10:14:54Z</time>
      </trkpt>
      <trkpt lat="47.03971" lon="-1.95801">
        <ele>4.789</ele>
        <time>2019-11-09T10:15:27Z</time>
      </trkpt>
      <trkpt lat="47.04045" lon="-1.95672">
        <ele>7.222</ele>
        <time>2019-11-09T10:16:00Z</time>
      </trkpt>
      <trkpt lat="47.04133" lon="-1.95618">
        <ele>5.881</ele>
        <time>2019-11-09T10:16:33Z</time>
      </trkpt>
      <trkpt lat="47.04123" lon="-1.95644">
        <ele>5.843</ele>
        <time>2019-11-09T10:18:45Z</time>
      </trkpt>
      <trkpt lat="47.04153" lon="-1.95533">
        <ele>7.235</ele>
        <time>2019-11-09T10:19:18Z</time>
      </trkpt>
      <trkpt lat="47.04255" lon="-1.95388">
        <ele>10.198</ele>
        <time>2019-11-09T10:19:51Z</time>
      </trkpt>
      <trkpt lat="47.04392" lon="-1.95323">
        <ele>10.986</ele>
        <time>2019-11-09T10:20:24Z</time>
      </trkpt>
      <trkpt lat="47.04529" lon="-1.95373">
        <ele>8.278</ele>
        <time>2019-11-09T10:20:57Z</time>
      </trkpt>
      <trkpt lat="47.04643" lon="-1.95563">
        <ele>10.286</ele>
        <time>2019-11-09T10:21:30Z</time>
      </trkpt>
      <trkpt lat="47.04729" lon="-1.95705">
        <ele>12.266</ele>
        <time>2019-11-09T10:22:00Z</time>
      </trkpt>
      <trkpt lat="47.04793" lon="-1.95811">
        <ele>14.513</ele>
        <time>2019-11-09T10:22:33Z</time>
      </trkpt>
      <trkpt lat="47.04815" lon="-1.95878">
        <ele>14.535</ele>
        <time>2019-11-09T10:26:00Z</time>
      </trkpt>
      <trkpt lat="47.04748" lon="-1.95744">
        <ele>13.732</ele>
        <time>2019-11-09T10:26:33Z</time>
      </trkpt>
      <trkpt lat="47.04623" lon="-1.95531">
        <ele>11.351</ele>
        <time>2019-11-09T10:27:06Z</time>
      </trkpt>
      <trkpt lat="47.04509" lon="-1.95343">
        <ele>5.672</ele>
        <time>2019-11-09T10:27:39Z</time>
      </trkpt>
      <trkpt lat="47.04384" lon="-1.95333">
        <ele>7.343</ele>
        <time>2019-11-09T10:28:12Z</time>
      </trkpt>
      <trkpt lat="47.04253" lon="-1.95398">
        <ele>8.12</ele>
        <time>2019-11-09T10:28:45Z</time>
      </trkpt>
      <trkpt lat="47.04157" lon="-1.95496">
        <ele>1.395</ele>
        <time>2019-11-09T10:29:18Z</time>
      </trkpt>
      <trkpt lat="47.04087" lon="-1.95306">
        <ele>2.948</ele>
        <time>2019-11-09T10:29:51Z</time>
      </trkpt>
      <trkpt lat="47.04204" lon="-1.95251">
        <ele>8.678</ele>
        <time>2019-11-09T10:30:24Z</time>
      </trkpt>
      <trkpt lat="47.04281" lon="-1.95135">
        <ele>12.141</ele>
        <time>2019-11-09T10:30:57Z</time>
      </trkpt>
      <trkpt lat="47.04352" lon="-1.95045">
        <ele>12.321</ele>
        <time>2019-11-09T10:31:30Z</time>
      </trkpt>
      <trkpt lat="47.0445" lon="-1.94903">
        <ele>14.052</ele>
        <time>2019-11-09T10:32:00Z</time>
      </trkpt>
      <trkpt lat="47.04615" lon="-1.94729">
        <ele>6.196</ele>
        <time>2019-11-09T10:32:33Z</time>
      </trkpt>
      <trkpt lat="47.04751" lon="-1.94743">
        <ele>10.891</ele>
        <time>2019-11-09T10:33:06Z</time>
      </trkpt>
      <trkpt lat="47.04846" lon="-1.94739">
        <ele>18.184</ele>
        <time>2019-11-09T10:33:39Z</time>
      </trkpt>
      <trkpt lat="47.0493" lon="-1.94719">
        <ele>18.46</ele>
        <time>2019-11-09T10:34:12Z</time>
      </trkpt>
      <trkpt lat="47.05013" lon="-1.94661">
        <ele>20.956</ele>
        <time>2019-11-09T10:34:45Z</time>
      </trkpt>
      <trkpt lat="47.05108" lon="-1.94591">
        <ele>23.011</ele>
        <time>2019-11-09T10:35:18Z</time>
      </trkpt>
      <trkpt lat="47.05208" lon="-1.94474">
        <ele>24.567</ele>
        <time>2019-11-09T10:35:51Z</time>
      </trkpt>
      <trkpt lat="47.05315" lon="-1.94322">
        <ele>24.13</ele>
        <time>2019-11-09T10:36:24Z</time>
      </trkpt>
      <trkpt lat="47.05432" lon="-1.94153">
        <ele>23.463</ele>
        <time>2019-11-09T10:36:57Z</time>
      </trkpt>
      <trkpt lat="47.05547" lon="-1.9399">
        <ele>23.518</ele>
        <time>2019-11-09T10:37:30Z</time>
      </trkpt>
      <trkpt lat="47.05661" lon="-1.93825">
        <ele>24.312</ele>
        <time>2019-11-09T10:38:03Z</time>
      </trkpt>
      <trkpt lat="47.05777" lon="-1.9366">
        <ele>24.618</ele>
        <time>2019-11-09T10:38:36Z</time>
      </trkpt>
      <trkpt lat="47.05892" lon="-1.93541">
        <ele>26.501</ele>
        <time>2019-11-09T10:39:06Z</time>
      </trkpt>
      <trkpt lat="47.0606" lon="-1.93542">
        <ele>28.501</ele>
        <time>2019-11-09T10:39:39Z</time>
      </trkpt>
      <trkpt lat="47.06227" lon="-1.93549">
        <ele>30.36</ele>
        <time>2019-11-09T10:40:12Z</time>
      </trkpt>
      <trkpt lat="47.06404" lon="-1.93553">
        <ele>26.344</ele>
        <time>2019-11-09T10:40:45Z</time>
      </trkpt>
      <trkpt lat="47.06613" lon="-1.93559">
        <ele>24.616</ele>
        <time>2019-11-09T10:41:18Z</time>
      </trkpt>
      <trkpt lat="47.06831" lon="-1.93564">
        <ele>22.428</ele>
        <time>2019-11-09T10:41:51Z</time>
      </trkpt>
      <trkpt lat="47.07004" lon="-1.93567">
        <ele>24.5</ele>
        <time>2019-11-09T10:42:24Z</time>
      </trkpt>
      <trkpt lat="47.07187" lon="-1.93574">
        <ele>24.573</ele>
        <time>2019-11-09T10:42:57Z</time>
      </trkpt>
      <trkpt lat="47.07364" lon="-1.93578">
        <ele>25.409</ele>
        <time>2019-11-09T10:43:30Z</time>
      </trkpt>
      <trkpt lat="47.07542" lon="-1.93584">
        <ele>25.52</ele>
        <time>2019-11-09T10:44:03Z</time>
      </trkpt>
      <trkpt lat="47.0775" lon="-1.9359">
        <ele>24.622</ele>
        <time>2019-11-09T10:44:36Z</time>
      </trkpt>
      <trkpt lat="47.07951" lon="-1.93594">
        <ele>22.018</ele>
        <time>2019-11-09T10:45:09Z</time>
      </trkpt>
      <trkpt lat="47.08149" lon="-1.93601">
        <ele>22.847</ele>
        <time>2019-11-09T10:45:42Z</time>
      </trkpt>
      <trkpt lat="47.08318" lon="-1.93606">
        <ele>28.154</ele>
        <time>2019-11-09T10:46:12Z</time>
      </trkpt>
      <trkpt lat="47.0851" lon="-1.93609">
        <ele>25.368</ele>
        <time>2019-11-09T10:46:45Z</time>
      </trkpt>
      <trkpt lat="47.08666" lon="-1.93614">
        <ele>34.555</ele>
        <time>2019-11-09T10:47:18Z</time>
      </trkpt>
      <trkpt lat="47.08828" lon="-1.9361">
        <ele>31.928</ele>
        <time>2019-11-09T10:47:51Z</time>
      </trkpt>
      <trkpt lat="47.08918" lon="-1.93624">
        <ele>28.987</ele>
        <time>2019-11-09T10:55:54Z</time>
      </trkpt>
      <trkpt lat="47.09093" lon="-1.93628">
        <ele>26.334</ele>
        <time>2019-11-09T10:56:27Z</time>
      </trkpt>
      <trkpt lat="47.09269" lon="-1.93634">
        <ele>25.747</ele>
        <time>2019-11-09T10:57:00Z</time>
      </trkpt>
      <trkpt lat="47.09441" lon="-1.93638">
        <ele>27.38</ele>
        <time>2019-11-09T10:57:33Z</time>
      </trkpt>
      <trkpt lat="47.09613" lon="-1.93644">
        <ele>24.326</ele>
        <time>2019-11-09T10:58:06Z</time>
      </trkpt>
      <trkpt lat="47.09795" lon="-1.93787">
        <ele>24.101</ele>
        <time>2019-11-09T10:58:39Z</time>
      </trkpt>
      <trkpt lat="47.10025" lon="-1.93856">
        <ele>21.845</ele>
        <time>2019-11-09T10:59:12Z</time>
      </trkpt>
      <trkpt lat="47.10262" lon="-1.93911">
        <ele>23.012</ele>
        <time>2019-11-09T10:59:45Z</time>
      </trkpt>
      <trkpt lat="47.10469" lon="-1.93875">
        <ele>24.209</ele>
        <time>2019-11-09T11:00:18Z</time>
      </trkpt>
      <trkpt lat="47.10659" lon="-1.93847">
        <ele>20.954</ele>
        <time>2019-11-09T11:00:48Z</time>
      </trkpt>
      <trkpt lat="47.10843" lon="-1.9381">
        <ele>22.474</ele>
        <time>2019-11-09T11:01:21Z</time>
      </trkpt>
      <trkpt lat="47.11065" lon="-1.93761">
        <ele>24.131</ele>
        <time>2019-11-09T11:01:54Z</time>
      </trkpt>
      <trkpt lat="47.11285" lon="-1.93777">
        <ele>18.763</ele>
        <time>2019-11-09T11:02:27Z</time>
      </trkpt>
      <trkpt lat="47.11461" lon="-1.93746">
        <ele>18.015</ele>
        <time>2019-11-09T11:03:00Z</time>
      </trkpt>
      <trkpt lat="47.11561" lon="-1.93564">
        <ele>20.287</ele>
        <time>2019-11-09T11:03:33Z</time>
      </trkpt>
      <trkpt lat="47.11637" lon="-1.93321">
        <ele>15.774</ele>
        <time>2019-11-09T11:04:06Z</time>
      </trkpt>
      <trkpt lat="47.11711" lon="-1.93074">
        <ele>12.937</ele>
        <time>2019-11-09T11:04:39Z</time>
      </trkpt>
      <trkpt lat="47.11785" lon="-1.92833">
        <ele>15.309</ele>
        <time>2019-11-09T11:05:12Z</time>
      </trkpt>
      <trkpt lat="47.11859" lon="-1.92592">
        <ele>14.487</ele>
        <time>2019-11-09T11:05:45Z</time>
      </trkpt>
      <trkpt lat="47.1193" lon="-1.92367">
        <ele>16.315</ele>
        <time>2019-11-09T11:06:18Z</time>
      </trkpt>
      <trkpt lat="47.11987" lon="-1.92171">
        <ele>17.457</ele>
        <time>2019-11-09T11:06:51Z</time>
      </trkpt>
      <trkpt lat="47.1205" lon="-1.91981">
        <ele>18.414</ele>
        <time>2019-11-09T11:07:24Z</time>
      </trkpt>
      <trkpt lat="47.12136" lon="-1.91744">
        <ele>13.946</ele>
        <time>2019-11-09T11:07:57Z</time>
      </trkpt>
      <trkpt lat="47.12217" lon="-1.91522">
        <ele>21.567</ele>
        <time>2019-11-09T11:08:27Z</time>
      </trkpt>
      <trkpt lat="47.1229" lon="-1.91311">
        <ele>20.895</ele>
        <time>2019-11-09T11:09:00Z</time>
      </trkpt>
      <trkpt lat="47.12399" lon="-1.91101">
        <ele>16.777</ele>
        <time>2019-11-09T11:09:33Z</time>
      </trkpt>
      <trkpt lat="47.12571" lon="-1.91048">
        <ele>14.22</ele>
        <time>2019-11-09T11:10:06Z</time>
      </trkpt>
      <trkpt lat="47.12728" lon="-1.91058">
        <ele>20.624</ele>
        <time>2019-11-09T11:10:39Z</time>
      </trkpt>
      <trkpt lat="47.12884" lon="-1.91051">
        <ele>15.002</ele>
        <time>2019-11-09T11:11:12Z</time>
      </trkpt>
      <trkpt lat="47.13043" lon="-1.91052">
        <ele>16.499</ele>
        <time>2019-11-09T11:11:45Z</time>
      </trkpt>
      <trkpt lat="47.1323" lon="-1.91017">
        <ele>12.594</ele>
        <time>2019-11-09T11:12:18Z</time>
      </trkpt>
      <trkpt lat="47.134" lon="-1.91043">
        <ele>14.423</ele>
        <time>2019-11-09T11:12:51Z</time>
      </trkpt>
      <trkpt lat="47.1357" lon="-1.91044">
        <ele>15.402</ele>
        <time>2019-11-09T11:13:24Z</time>
      </trkpt>
      <trkpt lat="47.13668" lon="-1.90882">
        <ele>14.933</ele>
        <time>2019-11-09T11:13:57Z</time>
      </trkpt>
      <trkpt lat="47.13741" lon="-1.90714">
        <ele>17.049</ele>
        <time>2019-11-09T11:14:30Z</time>
      </trkpt>
      <trkpt lat="47.13839" lon="-1.90667">
        <ele>24.315</ele>
        <time>2019-11-09T11:15:03Z</time>
      </trkpt>
      <trkpt lat="47.1394" lon="-1.90642">
        <ele>25.773</ele>
        <time>2019-11-09T11:15:33Z</time>
      </trkpt>
      <trkpt lat="47.14061" lon="-1.90616">
        <ele>28.589</ele>
        <time>2019-11-09T11:16:06Z</time>
      </trkpt>
      <trkpt lat="47.14189" lon="-1.90548">
        <ele>23.222</ele>
        <time>2019-11-09T11:16:39Z</time>
      </trkpt>
      <trkpt lat="47.14263" lon="-1.90369">
        <ele>25.456</ele>
        <time>2019-11-09T11:17:12Z</time>
      </trkpt>
      <trkpt lat="47.14338" lon="-1.90193">
        <ele>28.307</ele>
        <time>2019-11-09T11:17:45Z</time>
      </trkpt>
      <trkpt lat="47.14417" lon="-1.90002">
        <ele>23.536</ele>
        <time>2019-11-09T11:18:18Z</time>
      </trkpt>
      <trkpt lat="47.14494" lon="-1.89816">
        <ele>27.406</ele>
        <time>2019-11-09T11:18:51Z</time>
      </trkpt>
      <trkpt lat="47.14582" lon="-1.89598">
        <ele>25.733</ele>
        <time>2019-11-09T11:19:24Z</time>
      </trkpt>
      <trkpt lat="47.14664" lon="-1.89398">
        <ele>26.219</ele>
        <time>2019-11-09T11:19:57Z</time>
      </trkpt>
      <trkpt lat="47.14738" lon="-1.89235">
        <ele>26.787</ele>
        <time>2019-11-09T11:20:30Z</time>
      </trkpt>
      <trkpt lat="47.14807" lon="-1.89091">
        <ele>28.378</ele>
        <time>2019-11-09T11:21:03Z</time>
      </trkpt>
      <trkpt lat="47.14873" lon="-1.8895">
        <ele>31.049</ele>
        <time>2019-11-09T11:21:36Z</time>
      </trkpt>
      <trkpt lat="47.14946" lon="-1.88795">
        <ele>43.355</ele>
        <time>2019-11-09T11:22:09Z</time>
      </trkpt>
      <trkpt lat="47.15032" lon="-1.88615">
        <ele>33.61</ele>
        <time>2019-11-09T11:22:39Z</time>
      </trkpt>
      <trkpt lat="47.15125" lon="-1.88417">
        <ele>30.744</ele>
        <time>2019-11-09T11:23:12Z</time>
      </trkpt>
      <trkpt lat="47.15211" lon="-1.88229">
        <ele>33.154</ele>
        <time>2019-11-09T11:23:45Z</time>
      </trkpt>
      <trkpt lat="47.15278" lon="-1.88085">
        <ele>36.555</ele>
        <time>2019-11-09T11:24:18Z</time>
      </trkpt>
      <trkpt lat="47.15362" lon="-1.87969">
        <ele>35.207</ele>
        <time>2019-11-09T11:24:51Z</time>
      </trkpt>
      <trkpt lat="47.15454" lon="-1.87862">
        <ele>39.11</ele>
        <time>2019-11-09T11:25:24Z</time>
      </trkpt>
      <trkpt lat="47.15556" lon="-1.87772">
        <ele>36.122</ele>
        <time>2019-11-09T11:25:57Z</time>
      </trkpt>
      <trkpt lat="47.15677" lon="-1.87727">
        <ele>41.512</ele>
        <time>2019-11-09T11:26:30Z</time>
      </trkpt>
      <trkpt lat="47.15796" lon="-1.87681">
        <ele>46.376</ele>
        <time>2019-11-09T11:27:03Z</time>
      </trkpt>
      <trkpt lat="47.15912" lon="-1.87638">
        <ele>47.337</ele>
        <time>2019-11-09T11:27:36Z</time>
      </trkpt>
      <trkpt lat="47.16026" lon="-1.87577">
        <ele>47.394</ele>
        <time>2019-11-09T11:28:09Z</time>
      </trkpt>
      <trkpt lat="47.16165" lon="-1.87556">
        <ele>46.973</ele>
        <time>2019-11-09T11:28:42Z</time>
      </trkpt>
      <trkpt lat="47.16301" lon="-1.87541">
        <ele>50.563</ele>
        <time>2019-11-09T11:29:15Z</time>
      </trkpt>
      <trkpt lat="47.16447" lon="-1.87469">
        <ele>49.107</ele>
        <time>2019-11-09T11:29:45Z</time>
      </trkpt>
      <trkpt lat="47.16619" lon="-1.87336">
        <ele>48.526</ele>
        <time>2019-11-09T11:30:18Z</time>
      </trkpt>
      <trkpt lat="47.16732" lon="-1.8733">
        <ele>49.215</ele>
        <time>2019-11-09T11:30:51Z</time>
      </trkpt>
      <trkpt lat="47.16843" lon="-1.87325">
        <ele>50.221</ele>
        <time>2019-11-09T11:31:24Z</time>
      </trkpt>
      <trkpt lat="47.16965" lon="-1.87319">
        <ele>53.264</ele>
        <time>2019-11-09T11:31:57Z</time>
      </trkpt>
      <trkpt lat="47.17081" lon="-1.87273">
        <ele>56.955</ele>
        <time>2019-11-09T11:32:30Z</time>
      </trkpt>
      <trkpt lat="47.1719" lon="-1.87124">
        <ele>52.832</ele>
        <time>2019-11-09T11:33:03Z</time>
      </trkpt>
      <trkpt lat="47.17383" lon="-1.87046">
        <ele>47.196</ele>
        <time>2019-11-09T11:33:36Z</time>
      </trkpt>
      <trkpt lat="47.17592" lon="-1.868">
        <ele>40.442</ele>
        <time>2019-11-09T11:34:09Z</time>
      </trkpt>
      <trkpt lat="47.17833" lon="-1.86509">
        <ele>28.225</ele>
        <time>2019-11-09T11:34:42Z</time>
      </trkpt>
      <trkpt lat="47.1798" lon="-1.86331">
        <ele>24.638</ele>
        <time>2019-11-09T11:35:15Z</time>
      </trkpt>
      <trkpt lat="47.18165" lon="-1.86268">
        <ele>27.891</ele>
        <time>2019-11-09T11:35:48Z</time>
      </trkpt>
      <trkpt lat="47.18353" lon="-1.86178">
        <ele>32.107</ele>
        <time>2019-11-09T11:36:21Z</time>
      </trkpt>
      <trkpt lat="47.18524" lon="-1.86085">
        <ele>28.957</ele>
        <time>2019-11-09T11:36:51Z</time>
      </trkpt>
      <trkpt lat="47.18661" lon="-1.85866">
        <ele>20.749</ele>
        <time>2019-11-09T11:37:24Z</time>
      </trkpt>
      <trkpt lat="47.18825" lon="-1.85742">
        <ele>10.705</ele>
        <time>2019-11-09T11:37:57Z</time>
      </trkpt>
      <trkpt lat="47.18963" lon="-1.85642">
        <ele>10.345</ele>
        <time>2019-11-09T11:38:30Z</time>
      </trkpt>
      <trkpt lat="47.19085" lon="-1.85542">
        <ele>15.361</ele>
        <time>2019-11-09T11:39:03Z</time>
      </trkpt>
      <trkpt lat="47.19219" lon="-1.85386">
        <ele>14.641</ele>
        <time>2019-11-09T11:39:36Z</time>
      </trkpt>
      <trkpt lat="47.19271" lon="-1.85216">
        <ele>7.416</ele>
        <time>2019-11-09T11:40:09Z</time>
      </trkpt>
      <trkpt lat="47.1926" lon="-1.8508">
        <ele>14.176</ele>
        <time>2019-11-09T11:40:42Z</time>
      </trkpt>
      <trkpt lat="47.19292" lon="-1.84922">
        <ele>10.87</ele>
        <time>2019-11-09T11:41:15Z</time>
      </trkpt>
      <trkpt lat="47.19314" lon="-1.84751">
        <ele>13.837</ele>
        <time>2019-11-09T11:41:48Z</time>
      </trkpt>
      <trkpt lat="47.1926" lon="-1.84559">
        <ele>14.289</ele>
        <time>2019-11-09T11:42:21Z</time>
      </trkpt>
      <trkpt lat="47.19233" lon="-1.84382">
        <ele>11.411</ele>
        <time>2019-11-09T11:42:54Z</time>
      </trkpt>
      <trkpt lat="47.192" lon="-1.84182">
        <ele>9.348</ele>
        <time>2019-11-09T11:43:27Z</time>
      </trkpt>
      <trkpt lat="47.19201" lon="-1.84116">
        <ele>7.412</ele>
        <time>2019-11-09T11:45:42Z</time>
      </trkpt>
      <trkpt lat="47.19286" lon="-1.84127">
        <ele>10.989</ele>
        <time>2019-11-09T11:46:18Z</time>
      </trkpt>
      <trkpt lat="47.19387" lon="-1.84124">
        <ele>10.482</ele>
        <time>2019-11-09T11:46:51Z</time>
      </trkpt>
      <trkpt lat="47.19389" lon="-1.83936">
        <ele>11.064</ele>
        <time>2019-11-09T11:47:24Z</time>
      </trkpt>
      <trkpt lat="47.19466" lon="-1.8384">
        <ele>12.559</ele>
        <time>2019-11-09T11:47:57Z</time>
      </trkpt>
      <trkpt lat="47.1957" lon="-1.8382">
        <ele>19.014</ele>
        <time>2019-11-09T11:48:30Z</time>
      </trkpt>
      <trkpt lat="47.19602" lon="-1.83719">
        <ele>21.901</ele>
        <time>2019-11-09T11:49:03Z</time>
      </trkpt>
      <trkpt lat="47.19628" lon="-1.83561">
        <ele>15.845</ele>
        <time>2019-11-09T11:49:36Z</time>
      </trkpt>
      <trkpt lat="47.1962" lon="-1.83385">
        <ele>18.399</ele>
        <time>2019-11-09T11:50:09Z</time>
      </trkpt>
      <trkpt lat="47.19615" lon="-1.83187">
        <ele>16.419</ele>
        <time>2019-11-09T11:50:42Z</time>
      </trkpt>
      <trkpt lat="47.19646" lon="-1.82989">
        <ele>18.325</ele>
        <time>2019-11-09T11:51:15Z</time>
      </trkpt>
      <trkpt lat="47.19684" lon="-1.82794">
        <ele>19.834</ele>
        <time>2019-11-09T11:51:48Z</time>
      </trkpt>
      <trkpt lat="47.19733" lon="-1.82606">
        <ele>23.203</ele>
        <time>2019-11-09T11:52:21Z</time>
      </trkpt>
      <trkpt lat="47.19827" lon="-1.82447">
        <ele>22.278</ele>
        <time>2019-11-09T11:52:54Z</time>
      </trkpt>
      <trkpt lat="47.19902" lon="-1.82265">
        <ele>20.809</ele>
        <time>2019-11-09T11:53:24Z</time>
      </trkpt>
      <trkpt lat="47.19936" lon="-1.82012">
        <ele>17.406</ele>
        <time>2019-11-09T11:53:57Z</time>
      </trkpt>
      <trkpt lat="47.19881" lon="-1.81742">
        <ele>18.485</ele>
        <time>2019-11-09T11:54:30Z</time>
      </trkpt>
      <trkpt lat="47.19819" lon="-1.81466">
        <ele>14.885</ele>
        <time>2019-11-09T11:55:03Z</time>
      </trkpt>
      <trkpt lat="47.19713" lon="-1.81196">
        <ele>12.193</ele>
        <time>2019-11-09T11:55:36Z</time>
      </trkpt>
      <trkpt lat="47.19718" lon="-1.81006">
        <ele>9.372</ele>
        <time>2019-11-09T11:56:09Z</time>
      </trkpt>
      <trkpt lat="47.19788" lon="-1.80857">
        <ele>10.508</ele>
        <time>2019-11-09T11:56:42Z</time>
      </trkpt>
      <trkpt lat="47.19827" lon="-1.80733">
        <ele>18.032</ele>
        <time>2019-11-09T11:57:15Z</time>
      </trkpt>
      <trkpt lat="47.19847" lon="-1.80603">
        <ele>21.426</ele>
        <time>2019-11-09T11:57:48Z</time>
      </trkpt>
      <trkpt lat="47.199" lon="-1.8044">
        <ele>21.175</ele>
        <time>2019-11-09T11:58:21Z</time>
      </trkpt>
      <trkpt lat="47.19902" lon="-1.80267">
        <ele>21.304</ele>
        <time>2019-11-09T11:58:54Z</time>
      </trkpt>
      <trkpt lat="47.19873" lon="-1.80084">
        <ele>24.249</ele>
        <time>2019-11-09T11:59:27Z</time>
      </trkpt>
      <trkpt lat="47.1983" lon="-1.79867">
        <ele>21.677</ele>
        <time>2019-11-09T12:00:00Z</time>
      </trkpt>
      <trkpt lat="47.19823" lon="-1.79599">
        <ele>17.015</ele>
        <time>2019-11-09T12:00:30Z</time>
      </trkpt>
      <trkpt lat="47.19759" lon="-1.79219">
        <ele>9.196</ele>
        <time>2019-11-09T12:01:03Z</time>
      </trkpt>
      <trkpt lat="47.19656" lon="-1.7896">
        <ele>8.952</ele>
        <time>2019-11-09T12:01:36Z</time>
      </trkpt>
      <trkpt lat="47.19679" lon="-1.78714">
        <ele>8.615</ele>
        <time>2019-11-09T12:02:09Z</time>
      </trkpt>
      <trkpt lat="47.19698" lon="-1.78573">
        <ele>12.402</ele>
        <time>2019-11-09T12:02:42Z</time>
      </trkpt>
      <trkpt lat="47.19718" lon="-1.78455">
        <ele>16.754</ele>
        <time>2019-11-09T12:03:15Z</time>
      </trkpt>
      <trkpt lat="47.19722" lon="-1.78316">
        <ele>21.872</ele>
        <time>2019-11-09T12:03:48Z</time>
      </trkpt>
      <trkpt lat="47.19751" lon="-1.78118">
        <ele>20.117</ele>
        <time>2019-11-09T12:04:21Z</time>
      </trkpt>
      <trkpt lat="47.19906" lon="-1.77862">
        <ele>13.105</ele>
        <time>2019-11-09T12:04:54Z</time>
      </trkpt>
      <trkpt lat="47.20013" lon="-1.7773">
        <ele>14.951</ele>
        <time>2019-11-09T12:05:30Z</time>
      </trkpt>
      <trkpt lat="47.20015" lon="-1.77669">
        <ele>21.118</ele>
        <time>2019-11-09T12:09:48Z</time>
      </trkpt>
      <trkpt lat="47.20007" lon="-1.77563">
        <ele>27.216</ele>
        <time>2019-11-09T12:10:21Z</time>
      </trkpt>
      <trkpt lat="47.20015" lon="-1.7738">
        <ele>17.323</ele>
        <time>2019-11-09T12:10:54Z</time>
      </trkpt>
      <trkpt lat="47.20018" lon="-1.77169">
        <ele>14.427</ele>
        <time>2019-11-09T12:11:24Z</time>
      </trkpt>
      <trkpt lat="47.20019" lon="-1.76975">
        <ele>17.554</ele>
        <time>2019-11-09T12:11:57Z</time>
      </trkpt>
      <trkpt lat="47.20026" lon="-1.76785">
        <ele>17.374</ele>
        <time>2019-11-09T12:12:30Z</time>
      </trkpt>
      <trkpt lat="47.20034" lon="-1.76564">
        <ele>17.475</ele>
        <time>2019-11-09T12:13:03Z</time>
      </trkpt>
      <trkpt lat="47.20048" lon="-1.76332">
        <ele>17.992</ele>
        <time>2019-11-09T12:13:36Z</time>
      </trkpt>
      <trkpt lat="47.20051" lon="-1.76081">
        <ele>16.054</ele>
        <time>2019-11-09T12:14:09Z</time>
      </trkpt>
      <trkpt lat="47.20114" lon="-1.75903">
        <ele>18.091</ele>
        <time>2019-11-09T12:14:42Z</time>
      </trkpt>
      <trkpt lat="47.2025" lon="-1.75663">
        <ele>11.061</ele>
        <time>2019-11-09T12:15:15Z</time>
      </trkpt>
      <trkpt lat="47.20319" lon="-1.75597">
        <ele>10.696</ele>
        <time>2019-11-09T12:15:57Z</time>
      </trkpt>
      <trkpt lat="47.20301" lon="-1.75527">
        <ele>10.42</ele>
        <time>2019-11-09T12:16:30Z</time>
      </trkpt>
      <trkpt lat="47.20317" lon="-1.75457">
        <ele>6.445</ele>
        <time>2019-11-09T12:17:06Z</time>
      </trkpt>
      <trkpt lat="47.20324" lon="-1.75422">
        <ele>8.28</ele>
        <time>2019-11-09T12:20:42Z</time>
      </trkpt>
      <trkpt lat="47.20365" lon="-1.75327">
        <ele>10.345</ele>
        <time>2019-11-09T12:21:21Z</time>
      </trkpt>
      <trkpt lat="47.20415" lon="-1.75205">
        <ele>4.958</ele>
        <time>2019-11-09T12:21:51Z</time>
      </trkpt>
      <trkpt lat="47.20483" lon="-1.75106">
        <ele>3.596</ele>
        <time>2019-11-09T12:22:24Z</time>
      </trkpt>
      <trkpt lat="47.20541" lon="-1.75113">
        <ele>9.327</ele>
        <time>2019-11-09T12:23:09Z</time>
      </trkpt>
      <trkpt lat="47.20563" lon="-1.75151">
        <ele>7.487</ele>
        <time>2019-11-09T12:24:09Z</time>
      </trkpt>
      <trkpt lat="47.20609" lon="-1.75146">
        <ele>4.474</ele>
        <time>2019-11-09T12:24:54Z</time>
      </trkpt>
      <trkpt lat="47.20681" lon="-1.74969">
        <ele>5.694</ele>
        <time>2019-11-09T12:25:27Z</time>
      </trkpt>
      <trkpt lat="47.20832" lon="-1.74905">
        <ele>7.202</ele>
        <time>2019-11-09T12:26:00Z</time>
      </trkpt>
      <trkpt lat="47.20946" lon="-1.74796">
        <ele>10.369</ele>
        <time>2019-11-09T12:26:33Z</time>
      </trkpt>
      <trkpt lat="47.20985" lon="-1.74537">
        <ele>15.607</ele>
        <time>2019-11-09T12:27:06Z</time>
      </trkpt>
      <trkpt lat="47.21034" lon="-1.74262">
        <ele>7.384</ele>
        <time>2019-11-09T12:27:39Z</time>
      </trkpt>
      <trkpt lat="47.21156" lon="-1.74068">
        <ele>6.7</ele>
        <time>2019-11-09T12:28:12Z</time>
      </trkpt>
      <trkpt lat="47.21176" lon="-1.74046">
        <ele>6.677</ele>
        <time>2019-11-09T12:28:48Z</time>
      </trkpt>
      <trkpt lat="47.21136" lon="-1.7386">
        <ele>10.188</ele>
        <time>2019-11-09T12:29:21Z</time>
      </trkpt>
      <trkpt lat="47.21106" lon="-1.73665">
        <ele>19.077</ele>
        <time>2019-11-09T12:29:51Z</time>
      </trkpt>
      <trkpt lat="47.21109" lon="-1.73421">
        <ele>16.103</ele>
        <time>2019-11-09T12:30:24Z</time>
      </trkpt>
      <trkpt lat="47.21125" lon="-1.73176">
        <ele>12.434</ele>
        <time>2019-11-09T12:30:57Z</time>
      </trkpt>
      <trkpt lat="47.21004" lon="-1.73066">
        <ele>11.825</ele>
        <time>2019-11-09T12:31:30Z</time>
      </trkpt>
      <trkpt lat="47.20934" lon="-1.72883">
        <ele>11.761</ele>
        <time>2019-11-09T12:32:03Z</time>
      </trkpt>
      <trkpt lat="47.20956" lon="-1.72774">
        <ele>10.61</ele>
        <time>2019-11-09T12:32:36Z</time>
      </trkpt>
      <trkpt lat="47.2103" lon="-1.72747">
        <ele>19.683</ele>
        <time>2019-11-09T12:33:09Z</time>
      </trkpt>
      <trkpt lat="47.21097" lon="-1.72698">
        <ele>39.479</ele>
        <time>2019-11-09T12:33:45Z</time>
      </trkpt>
      <trkpt lat="47.21145" lon="-1.72602">
        <ele>35.054</ele>
        <time>2019-11-09T12:34:21Z</time>
      </trkpt>
      <trkpt lat="47.21183" lon="-1.72476">
        <ele>33.603</ele>
        <time>2019-11-09T12:34:54Z</time>
      </trkpt>
      <trkpt lat="47.21202" lon="-1.72341">
        <ele>35.73</ele>
        <time>2019-11-09T12:35:27Z</time>
      </trkpt>
      <trkpt lat="47.21226" lon="-1.72199">
        <ele>36.51</ele>
        <time>2019-11-09T12:36:00Z</time>
      </trkpt>
      <trkpt lat="47.21262" lon="-1.72052">
        <ele>51.669</ele>
        <time>2019-11-09T12:36:33Z</time>
      </trkpt>
      <trkpt lat="47.21286" lon="-1.71919">
        <ele>52.855</ele>
        <time>2019-11-09T12:37:03Z</time>
      </trkpt>
      <trkpt lat="47.21278" lon="-1.71702">
        <ele>49.107</ele>
        <time>2019-11-09T12:37:36Z</time>
      </trkpt>
      <trkpt lat="47.21261" lon="-1.71485">
        <ele>42.954</ele>
        <time>2019-11-09T12:38:09Z</time>
      </trkpt>
      <trkpt lat="47.2124" lon="-1.71238">
        <ele>45.094</ele>
        <time>2019-11-09T12:38:42Z</time>
      </trkpt>
      <trkpt lat="47.21263" lon="-1.71041">
        <ele>44.968</ele>
        <time>2019-11-09T12:39:15Z</time>
      </trkpt>
      <trkpt lat="47.21285" lon="-1.70774">
        <ele>39.817</ele>
        <time>2019-11-09T12:39:48Z</time>
      </trkpt>
      <trkpt lat="47.21336" lon="-1.70407">
        <ele>25.633</ele>
        <time>2019-11-09T12:40:21Z</time>
      </trkpt>
      <trkpt lat="47.21369" lon="-1.70176">
        <ele>19.953</ele>
        <time>2019-11-09T12:40:54Z</time>
      </trkpt>
      <trkpt lat="47.21382" lon="-1.70046">
        <ele>23.802</ele>
        <time>2019-11-09T12:41:27Z</time>
      </trkpt>
      <trkpt lat="47.21385" lon="-1.69922">
        <ele>29.692</ele>
        <time>2019-11-09T12:42:00Z</time>
      </trkpt>
      <trkpt lat="47.21366" lon="-1.69767">
        <ele>36.659</ele>
        <time>2019-11-09T12:42:33Z</time>
      </trkpt>
      <trkpt lat="47.21333" lon="-1.69513">
        <ele>37.632</ele>
        <time>2019-11-09T12:43:06Z</time>
      </trkpt>
      <trkpt lat="47.21327" lon="-1.69393">
        <ele>31.387</ele>
        <time>2019-11-09T12:43:39Z</time>
      </trkpt>
      <trkpt lat="47.21344" lon="-1.69224">
        <ele>32.703</ele>
        <time>2019-11-09T12:44:12Z</time>
      </trkpt>
      <trkpt lat="47.21389" lon="-1.69041">
        <ele>38.338</ele>
        <time>2019-11-09T12:44:42Z</time>
      </trkpt>
      <trkpt lat="47.21439" lon="-1.6884">
        <ele>38.964</ele>
        <time>2019-11-09T12:45:15Z</time>
      </trkpt>
      <trkpt lat="47.21486" lon="-1.68611">
        <ele>42.167</ele>
        <time>2019-11-09T12:45:48Z</time>
      </trkpt>
      <trkpt lat="47.21525" lon="-1.68389">
        <ele>43.689</ele>
        <time>2019-11-09T12:46:21Z</time>
      </trkpt>
      <trkpt lat="47.21555" lon="-1.68444">
        <ele>36.843</ele>
        <time>2019-11-09T12:47:21Z</time>
      </trkpt>
      <trkpt lat="47.21554" lon="-1.68438">
        <ele>32.422</ele>
        <time>2019-11-09T12:52:15Z</time>
      </trkpt>
      <trkpt lat="47.21503" lon="-1.68503">
        <ele>27.239</ele>
        <time>2019-11-09T13:22:48Z</time>
      </trkpt>
      <trkpt lat="47.21533" lon="-1.68354">
        <ele>28.539</ele>
        <time>2019-11-09T13:23:21Z</time>
      </trkpt>
      <trkpt lat="47.21548" lon="-1.6817">
        <ele>30.681</ele>
        <time>2019-11-09T13:23:54Z</time>
      </trkpt>
      <trkpt lat="47.2168" lon="-1.68191">
        <ele>43.914</ele>
        <time>2019-11-09T13:24:27Z</time>
      </trkpt>
      <trkpt lat="47.21867" lon="-1.68217">
        <ele>27.367</ele>
        <time>2019-11-09T13:25:00Z</time>
      </trkpt>
      <trkpt lat="47.22021" lon="-1.68117">
        <ele>13.245</ele>
        <time>2019-11-09T13:25:33Z</time>
      </trkpt>
      <trkpt lat="47.22141" lon="-1.67972">
        <ele>19.651</ele>
        <time>2019-11-09T13:26:06Z</time>
      </trkpt>
      <trkpt lat="47.22307" lon="-1.6786">
        <ele>12.414</ele>
        <time>2019-11-09T13:26:36Z</time>
      </trkpt>
      <trkpt lat="47.22458" lon="-1.67814">
        <ele>17.995</ele>
        <time>2019-11-09T13:27:09Z</time>
      </trkpt>
      <trkpt lat="47.22565" lon="-1.6782">
        <ele>28.336</ele>
        <time>2019-11-09T13:27:42Z</time>
      </trkpt>
      <trkpt lat="47.2267" lon="-1.67815">
        <ele>33.716</ele>
        <time>2019-11-09T13:28:15Z</time>
      </trkpt>
      <trkpt lat="47.22772" lon="-1.6779">
        <ele>32.782</ele>
        <time>2019-11-09T13:28:48Z</time>
      </trkpt>
      <trkpt lat="47.22856" lon="-1.67759">
        <ele>30.15</ele>
        <time>2019-11-09T13:29:21Z</time>
      </trkpt>
      <trkpt lat="47.22942" lon="-1.67698">
        <ele>32.212</ele>
        <time>2019-11-09T13:29:54Z</time>
      </trkpt>
      <trkpt lat="47.23053" lon="-1.67592">
        <ele>31.645</ele>
        <time>2019-11-09T13:30:27Z</time>
      </trkpt>
      <trkpt lat="47.23147" lon="-1.67477">
        <ele>29.369</ele>
        <time>2019-11-09T13:31:00Z</time>
      </trkpt>
      <trkpt lat="47.23224" lon="-1.67396">
        <ele>33.276</ele>
        <time>2019-11-09T13:31:33Z</time>
      </trkpt>
      <trkpt lat="47.23294" lon="-1.67346">
        <ele>38.476</ele>
        <time>2019-11-09T13:32:06Z</time>
      </trkpt>
      <trkpt lat="47.23379" lon="-1.67286">
        <ele>43.984</ele>
        <time>2019-11-09T13:32:39Z</time>
      </trkpt>
      <trkpt lat="47.23496" lon="-1.67206">
        <ele>48.273</ele>
        <time>2019-11-09T13:33:12Z</time>
      </trkpt>
      <trkpt lat="47.23643" lon="-1.6715">
        <ele>50.586</ele>
        <time>2019-11-09T13:33:42Z</time>
      </trkpt>
      <trkpt lat="47.23806" lon="-1.67126">
        <ele>53.636</ele>
        <time>2019-11-09T13:34:15Z</time>
      </trkpt>
      <trkpt lat="47.23937" lon="-1.67169">
        <ele>59.767</ele>
        <time>2019-11-09T13:34:48Z</time>
      </trkpt>
      <trkpt lat="47.24096" lon="-1.67276">
        <ele>63.589</ele>
        <time>2019-11-09T13:35:21Z</time>
      </trkpt>
      <trkpt lat="47.24241" lon="-1.67185">
        <ele>45.977</ele>
        <time>2019-11-09T13:35:54Z</time>
      </trkpt>
      <trkpt lat="47.24329" lon="-1.67222">
        <ele>43.899</ele>
        <time>2019-11-09T13:36:27Z</time>
      </trkpt>
      <trkpt lat="47.24333" lon="-1.67193">
        <ele>45.185</ele>
        <time>2019-11-09T13:39:33Z</time>
      </trkpt>
      <trkpt lat="47.2434" lon="-1.67194">
        <ele>47.935</ele>
        <time>2019-11-09T13:51:39Z</time>
      </trkpt>
      <trkpt lat="47.24301" lon="-1.67186">
        <ele>47.708</ele>
        <time>2019-11-09T13:53:43Z</time>
      </trkpt>
      <trkpt lat="47.24309" lon="-1.67181">
        <ele>53.526</ele>
        <time>2019-11-09T13:55:16Z</time>
      </trkpt>
      <trkpt lat="47.24355" lon="-1.67188">
        <ele>67.173</ele>
        <time>2019-11-09T13:59:41Z</time>
      </trkpt>
      <trkpt lat="47.24346" lon="-1.67184">
        <ele>62.863</ele>
        <time>2019-11-09T14:02:26Z</time>
      </trkpt>
      <trkpt lat="47.24315" lon="-1.67186">
        <ele>54.107</ele>
        <time>2019-11-09T14:04:02Z</time>
      </trkpt>
    </trkseg>
  </trk>
</gpx>